»·PEaware :: WAT542 KSEA-KMSO

WAT542 :: KSEA-KMSO

FLIGHT INFORMATION

Flight Status: Arrived
Operator:
Walker Air Transport
More flights by this operator :: More flights under this callsign
Pilot: Andrew C. (28419)
Aircraft: Unknown
(A21N)
More flights by this aircraft type
Origin: KSEA Seattle-Tacoma Intl
United States
Destination: KMSO Missoula Intl
United States
More flights between these airports :: More routes between these airports
Route: SEA7 SEA ZADON ZELAK ZIRAN MLP V2 MSO
File this flight plan on PilotEdge
Remarks: RMK / SIMBRIEF
Altitude:
(Current/Filed)
33,000ft
Speed:
(Current/Filed)
432kts
Departed: 08-Feb-21 07:56 PM
Arrived: 08-Feb-21 08:50 PM
Distance/Time
Traveled:
337nm/0:54
Distance/Time
To Go:
Arrived

Flight Plot

Page will automatically refresh every two minutes.

Flight plan parsing failed; only flown route is shown


Map Options




Map Legend


Flown Route
Filed Route
Departure Airport
Arrival Airport
Navaid (VOR, NDB)
Fix

Horizontal Profiles

Position Reports

Time Latitude Longitude Heading Altitude Ground
Speed
08-Feb-21 19:28 47.441619 -122.304568 90 478ft 0kts
08-Feb-21 19:29 47.441619 -122.304568 90 478ft 0kts
08-Feb-21 19:30 47.441619 -122.304568 90 478ft 0kts
08-Feb-21 19:31 47.441619 -122.304568 90 478ft 0kts
08-Feb-21 19:32 47.441619 -122.304568 90 478ft 0kts
08-Feb-21 19:33 47.441619 -122.304568 90 478ft 0kts
08-Feb-21 19:34 47.441619 -122.304568 90 478ft 0kts
08-Feb-21 19:35 47.441619 -122.304568 90 478ft 0kts
08-Feb-21 19:36 47.441619 -122.304568 90 478ft 0kts
08-Feb-21 19:37 47.441619 -122.304568 90 478ft 0kts
08-Feb-21 19:38 47.441619 -122.304568 90 478ft 0kts
08-Feb-21 19:39 47.441619 -122.304568 90 478ft 0kts
08-Feb-21 19:40 47.441619 -122.304568 90 478ft 0kts
08-Feb-21 19:41 47.441619 -122.304568 90 478ft 0kts
08-Feb-21 19:42 47.441619 -122.304568 90 478ft 0kts
08-Feb-21 19:43 47.441619 -122.304568 90 478ft 0kts
08-Feb-21 19:44 47.441619 -122.304568 90 478ft 0kts
08-Feb-21 19:45 47.441619 -122.304568 90 478ft 0kts
08-Feb-21 19:46 47.441619 -122.304568 90 478ft 0kts
08-Feb-21 19:47 47.441620 -122.305118 89 478ft 2kts
08-Feb-21 19:48 47.441893 -122.305433 180 478ft 0kts
08-Feb-21 19:49 47.441892 -122.305433 181 478ft 0kts
08-Feb-21 19:50 47.441892 -122.305433 181 478ft 0kts
08-Feb-21 19:51 47.440363 -122.305426 178 478ft 0kts
08-Feb-21 19:52 47.438384 -122.306257 175 478ft 16kts
08-Feb-21 19:53 47.433168 -122.305638 180 478ft 19kts
08-Feb-21 19:54 47.431805 -122.306572 248 478ft 3kts
08-Feb-21 19:55 47.436309 -122.308001 0 478ft 86kts
08-Feb-21 19:56 47.479321 -122.309253 356 2220ft 174kts
08-Feb-21 19:57 47.534384 -122.314388 357 3438ft 229kts
08-Feb-21 19:58 47.605621 -122.320682 356 5534ft 270kts
08-Feb-21 19:59 47.648649 -122.252892 105 8293ft 278kts
08-Feb-21 20:00 47.627298 -122.137873 104 10547ft 310kts
08-Feb-21 20:01 47.604730 -122.000605 101 12215ft 356kts
08-Feb-21 20:02 47.580380 -121.850718 101 14406ft 376kts
08-Feb-21 20:03 47.560891 -121.695318 88 16447ft 388kts
08-Feb-21 20:04 47.559412 -121.531544 86 18257ft 404kts
08-Feb-21 20:05 47.556912 -121.359817 87 20022ft 418kts
08-Feb-21 20:06 47.554118 -121.184430 87 21556ft 432kts
08-Feb-21 20:07 47.550938 -121.003618 87 23029ft 443kts
08-Feb-21 20:08 47.547442 -120.819422 87 24343ft 455kts
08-Feb-21 20:09 47.543521 -120.629748 87 25560ft 467kts
08-Feb-21 20:10 47.539147 -120.435366 87 26702ft 479kts
08-Feb-21 20:11 47.539068 -120.236289 85 27893ft 484kts
08-Feb-21 20:12 47.539418 -120.037061 85 29125ft 485kts
08-Feb-21 20:13 47.539324 -119.836936 85 30169ft 488kts
08-Feb-21 20:14 47.538854 -119.636145 85 31288ft 487kts
08-Feb-21 20:15 47.538050 -119.436061 85 32345ft 485kts
08-Feb-21 20:16 47.536912 -119.236906 86 33114ft 488kts
08-Feb-21 20:17 47.535364 -119.035527 86 33135ft 489kts
08-Feb-21 20:18 47.533491 -118.834540 86 33126ft 491kts
08-Feb-21 20:19 47.531257 -118.632497 86 33106ft 492kts
08-Feb-21 20:20 47.528650 -118.429589 86 33102ft 493kts
08-Feb-21 20:21 47.525713 -118.226961 87 33101ft 494kts
08-Feb-21 20:22 47.522372 -118.023671 87 33101ft 494kts
08-Feb-21 20:23 47.518686 -117.820408 86 33083ft 495kts
08-Feb-21 20:24 47.514658 -117.616877 86 33068ft 495kts
08-Feb-21 20:25 47.510254 -117.413434 86 33065ft 494kts
08-Feb-21 20:26 47.505485 -117.210050 87 33064ft 495kts
08-Feb-21 20:27 47.498727 -117.006880 98 33048ft 500kts
08-Feb-21 20:28 47.460968 -116.807916 106 33049ft 507kts
08-Feb-21 20:29 47.417660 -116.604907 104 31164ft 523kts
08-Feb-21 20:30 47.376685 -116.390881 103 28873ft 524kts
08-Feb-21 20:31 47.336701 -116.182621 103 27294ft 507kts
08-Feb-21 20:33 47.296871 -115.977765 103 25150ft 483kts
08-Feb-21 20:34 47.259828 -115.789137 103 22670ft 456kts
08-Feb-21 20:35 47.223664 -115.606760 104 19659ft 427kts
08-Feb-21 20:36 47.187973 -115.428543 105 16645ft 395kts
08-Feb-21 20:37 47.154347 -115.261875 106 14643ft 371kts
08-Feb-21 20:38 47.121436 -115.100334 106 13029ft 364kts
08-Feb-21 20:39 47.089977 -114.947271 107 11440ft 354kts
08-Feb-21 20:40 47.101949 -114.811830 60 10813ft 319kts
08-Feb-21 20:41 47.137102 -114.695267 64 10484ft 288kts
08-Feb-21 20:42 47.167711 -114.585758 65 10486ft 287kts
08-Feb-21 20:43 47.151220 -114.491344 139 9720ft 254kts
08-Feb-21 20:44 47.104310 -114.412651 130 8522ft 227kts
08-Feb-21 20:45 47.059160 -114.335429 131 7196ft 219kts
08-Feb-21 20:45 47.026102 -114.279135 130 6219ft 214kts
08-Feb-21 20:47 46.985402 -114.209849 130 5018ft 188kts
08-Feb-21 20:48 46.955226 -114.158360 130 4139ft 160kts
08-Feb-21 20:48 46.931251 -114.117490 130 3446ft 158kts
08-Feb-21 20:50 46.912845 -114.086007 124 3204ft 31kts
08-Feb-21 20:51 46.913307 -114.084337 44 3206ft 0kts
08-Feb-21 20:51 46.914342 -114.084891 309 3206ft 16kts
08-Feb-21 20:52 46.918734 -114.086146 1 3210ft 16kts
08-Feb-21 20:53 46.919279 -114.085353 110 3211ft 0kts
08-Feb-21 20:54 46.919279 -114.085353 110 3211ft 0kts
08-Feb-21 20:55 46.919279 -114.085353 110 3211ft 0kts
08-Feb-21 20:56 46.919279 -114.085353 110 3211ft 0kts

Navigation Log

Ident Type
Flight plan parsing failed, navigation log unavailable